createdAt,value
2018-02-05T00:01:22.768Z,17.77
2018-02-05T00:03:51.701Z,18.10
2018-02-05T00:06:20.949Z,17.93
2018-02-05T00:08:49.194Z,17.80
2018-02-05T00:11:17.393Z,17.20
2018-02-05T00:13:45.598Z,17.50
2018-02-05T00:16:14.000Z,17.07
2018-02-05T00:18:42.194Z,16.70
2018-02-05T00:21:10.356Z,16.23
2018-02-05T00:23:38.512Z,17.17
2018-02-05T00:26:07.393Z,16.53
2018-02-05T00:28:35.520Z,17.73
2018-02-05T00:31:03.681Z,17.30
2018-02-05T00:33:31.839Z,15.97
2018-02-05T00:35:59.956Z,17.60
2018-02-05T00:38:28.060Z,17.60
2018-02-05T00:40:56.192Z,16.07
2018-02-05T00:43:24.293Z,14.90
2018-02-05T00:45:52.422Z,16.63
2018-02-05T00:48:20.520Z,16.57
2018-02-05T00:50:48.635Z,16.57
2018-02-05T00:53:16.738Z,15.90
2018-02-05T00:55:44.854Z,16.93
2018-02-05T00:58:16.406Z,17.27
2018-02-05T01:00:44.495Z,17.50
2018-02-05T01:03:13.387Z,16.90
2018-02-05T01:05:41.511Z,17.27
2018-02-05T01:08:09.616Z,16.63
2018-02-05T01:10:37.738Z,18.17
2018-02-05T01:13:05.834Z,17.67
2018-02-05T01:15:33.952Z,18.10
2018-02-05T01:18:02.090Z,17.67
2018-02-05T01:20:30.213Z,17.07
2018-02-05T01:22:59.113Z,17.07
2018-02-05T01:25:27.235Z,19.40
2018-02-05T01:27:55.433Z,18.87
2018-02-05T01:30:23.557Z,17.53
2018-02-05T01:32:51.670Z,17.20
2018-02-05T01:35:19.801Z,18.50
2018-02-05T01:37:47.892Z,18.50
2018-02-05T01:40:16.020Z,17.93
2018-02-05T01:42:44.111Z,18.20
2018-02-05T01:45:12.231Z,18.20
2018-02-05T01:47:40.324Z,17.23
2018-02-05T01:50:08.450Z,17.20
2018-02-05T01:52:36.575Z,17.63
2018-02-05T01:55:04.724Z,16.53
2018-02-05T01:57:32.862Z,18.03
2018-02-05T02:00:01.022Z,17.20
2018-02-05T02:02:30.084Z,16.50
2018-02-05T02:04:58.256Z,17.93
2018-02-05T02:07:26.378Z,16.70
2018-02-05T02:09:54.495Z,16.20
2018-02-05T02:12:23.377Z,17.50
2018-02-05T02:14:51.480Z,17.10
2018-02-05T02:17:19.591Z,16.73
2018-02-05T02:19:47.695Z,16.77
2018-02-05T02:22:15.828Z,16.60
2018-02-05T02:24:43.934Z,17.40
2018-02-05T02:27:12.049Z,16.00
2018-02-05T02:29:40.163Z,17.23
2018-02-05T02:32:08.304Z,16.03
2018-02-05T02:34:36.441Z,15.63
2018-02-05T02:37:04.568Z,16.33
2018-02-05T02:39:32.696Z,14.97
2018-02-05T02:42:01.560Z,16.40
2018-02-05T02:44:29.689Z,16.00
2018-02-05T02:46:57.821Z,15.93
2018-02-05T02:49:25.985Z,15.60
2018-02-05T02:51:54.089Z,16.13
2018-02-05T02:54:22.956Z,15.77
2018-02-05T02:56:51.127Z,15.23
2018-02-05T02:59:19.225Z,15.50
2018-02-05T03:01:47.349Z,15.80
2018-02-05T03:04:16.384Z,16.30
2018-02-05T03:06:44.514Z,16.23
2018-02-05T03:09:12.621Z,16.20
2018-02-05T03:11:40.721Z,14.23
2018-02-05T03:14:08.844Z,16.50
2018-02-05T03:16:36.955Z,14.17
2018-02-05T03:19:05.137Z,15.27
2018-02-05T03:21:33.250Z,17.20
2018-02-05T03:24:01.375Z,14.53
2018-02-05T03:26:29.559Z,15.80
2018-02-05T03:28:57.711Z,14.13
2018-02-05T03:31:26.665Z,14.00
2018-02-05T03:33:54.795Z,15.50
2018-02-05T03:36:22.928Z,15.57
2018-02-05T03:38:51.101Z,15.37
2018-02-05T03:41:19.270Z,16.17
2018-02-05T03:43:47.403Z,14.63
2018-02-05T03:46:15.542Z,16.67
2018-02-05T03:48:44.452Z,17.53
2018-02-05T03:51:12.579Z,15.20
2018-02-05T03:53:40.733Z,15.37
2018-02-05T03:56:09.628Z,14.97
2018-02-05T03:58:37.833Z,17.20
2018-02-05T04:01:06.140Z,15.00
2018-02-05T04:03:34.633Z,17.47
2018-02-05T04:06:25.002Z,16.47
2018-02-05T04:08:54.464Z,16.10
2018-02-05T04:11:22.791Z,17.10
2018-02-05T04:14:03.176Z,16.50
2018-02-05T04:16:31.356Z,16.60
2018-02-05T04:18:59.561Z,17.00
2018-02-05T04:21:32.274Z,16.03
2018-02-05T04:24:06.685Z,17.27
2018-02-05T04:26:35.619Z,16.73
2018-02-05T04:29:04.134Z,16.83
2018-02-05T04:31:32.629Z,16.40
2018-02-05T04:34:01.017Z,16.00
2018-02-05T04:36:29.160Z,16.07
2018-02-05T04:38:58.062Z,17.10
2018-02-05T04:41:26.990Z,15.97
2018-02-05T04:43:55.937Z,16.47
2018-02-05T04:46:24.414Z,17.13
2018-02-05T04:48:53.209Z,17.60
2018-02-05T04:51:22.517Z,16.80
2018-02-05T04:53:51.404Z,15.63
2018-02-05T04:56:19.741Z,16.50
2018-02-05T04:58:47.955Z,16.40
2018-02-05T05:01:16.115Z,15.40
2018-02-05T05:03:57.804Z,15.93
2018-02-05T05:06:25.966Z,15.50
2018-02-05T05:08:54.119Z,15.90
2018-02-05T05:11:23.338Z,16.70
2018-02-05T05:13:51.444Z,15.10
2018-02-05T05:16:19.550Z,14.70
2018-02-05T05:18:48.465Z,16.10
2018-02-05T05:21:20.624Z,14.30
2018-02-05T05:23:49.495Z,13.83
2018-02-05T05:26:17.620Z,14.10
2018-02-05T05:28:45.719Z,14.97
2018-02-05T05:31:13.868Z,14.90
2018-02-05T05:33:41.995Z,14.97
2018-02-05T05:36:10.890Z,14.67
2018-02-05T05:38:39.751Z,13.63
2018-02-05T05:41:07.883Z,14.57
2018-02-05T05:43:36.001Z,13.90
2018-02-05T05:46:04.100Z,14.23
2018-02-05T05:48:32.249Z,13.63
2018-02-05T05:51:00.376Z,12.73
2018-02-05T05:53:28.916Z,13.57
2018-02-05T05:55:57.715Z,13.03
2018-02-05T05:58:25.817Z,14.10
2018-02-05T06:00:53.945Z,12.80
2018-02-05T06:03:22.065Z,12.90
2018-02-05T06:05:50.200Z,12.60
2018-02-05T06:08:19.114Z,13.93
2018-02-05T06:10:47.233Z,13.07
2018-02-05T06:13:15.349Z,12.60
2018-02-05T06:15:43.475Z,13.63
2018-02-05T06:18:11.569Z,13.40
2018-02-05T06:20:39.660Z,12.57
2018-02-05T06:23:08.551Z,13.33
2018-02-05T06:25:37.421Z,13.47
2018-02-05T06:28:08.472Z,11.90
2018-02-05T06:30:36.572Z,12.60
2018-02-05T06:33:04.679Z,12.77
2018-02-05T06:35:32.787Z,12.47
2018-02-05T06:38:00.898Z,13.33
2018-02-05T06:40:29.016Z,12.50
2018-02-05T06:42:57.122Z,12.87
2018-02-05T06:45:25.235Z,11.40
2018-02-05T06:47:53.334Z,11.40
2018-02-05T06:50:39.195Z,12.67
2018-02-05T06:56:24.206Z,13.30
2018-02-05T06:58:52.321Z,13.20
2018-02-05T07:01:20.448Z,12.93
2018-02-05T07:03:49.467Z,13.37
2018-02-05T07:06:17.599Z,15.10
2018-02-05T07:08:45.688Z,12.47
2018-02-05T07:11:13.796Z,13.07
2018-02-05T07:13:42.652Z,12.37
2018-02-05T07:16:10.768Z,12.10
2018-02-05T07:18:38.875Z,13.70
2018-02-05T07:21:06.987Z,13.20
2018-02-05T07:23:35.222Z,16.73
2018-02-05T07:26:03.377Z,12.33
2018-02-05T07:28:31.689Z,12.33
2018-02-05T07:30:59.799Z,13.20
2018-02-05T07:33:28.684Z,12.00
2018-02-05T07:35:56.810Z,11.97
2018-02-05T07:38:24.919Z,12.10
2018-02-05T07:40:53.016Z,12.40
2018-02-05T07:43:21.888Z,11.70
2018-02-05T07:45:50.005Z,13.17
2018-02-05T07:48:18.111Z,12.30
2018-02-05T07:50:46.493Z,12.13
2018-02-05T07:53:14.757Z,15.60
2018-02-05T07:55:42.880Z,14.50
2018-02-05T07:58:11.744Z,11.50
2018-02-05T08:00:39.829Z,11.73
2018-02-05T08:03:07.948Z,10.53
2018-02-05T08:05:36.069Z,11.80
2018-02-05T08:08:04.353Z,10.97
2018-02-05T08:10:32.451Z,11.97
2018-02-05T08:13:00.564Z,11.70
2018-02-05T08:15:28.685Z,11.27
2018-02-05T08:17:58.075Z,11.40
2018-02-05T08:20:31.726Z,11.73
2018-02-05T08:22:59.823Z,12.30
2018-02-05T08:25:27.912Z,16.33
2018-02-05T08:27:56.040Z,11.40
2018-02-05T08:30:24.484Z,11.20
2018-02-05T08:32:53.336Z,11.00
2018-02-05T08:35:21.457Z,12.77
2018-02-05T08:37:50.310Z,12.03
2018-02-05T08:40:19.194Z,11.97
2018-02-05T08:42:47.294Z,11.93
2018-02-05T08:45:15.423Z,11.50
2018-02-05T08:47:43.547Z,11.03
2018-02-05T08:50:12.927Z,11.80
2018-02-05T08:52:41.008Z,12.87
2018-02-05T08:55:09.094Z,11.63
2018-02-05T08:57:37.967Z,11.50
2018-02-05T09:00:06.078Z,10.87
2018-02-05T09:02:34.194Z,10.00
2018-02-05T09:05:02.281Z,10.30
2018-02-05T09:07:30.395Z,11.63
2018-02-05T09:09:58.504Z,11.00
2018-02-05T09:12:26.604Z,10.90
2018-02-05T09:14:54.701Z,11.17
2018-02-05T09:17:22.823Z,12.30
2018-02-05T09:19:50.933Z,13.30
2018-02-05T09:22:19.820Z,11.80
2018-02-05T09:24:48.832Z,10.23
2018-02-05T09:30:18.859Z,12.33
2018-02-05T09:32:47.703Z,11.40
2018-02-05T09:35:16.694Z,11.30
2018-02-05T09:37:44.801Z,11.23
2018-02-05T09:40:12.901Z,10.60
2018-02-05T09:42:42.660Z,10.97
2018-02-05T09:45:10.763Z,12.97
2018-02-05T09:47:38.891Z,11.70
2018-02-05T09:50:06.999Z,12.20
2018-02-05T09:52:35.098Z,11.10
2018-02-05T09:55:03.203Z,11.10
2018-02-05T09:57:31.319Z,11.30
2018-02-05T09:59:59.390Z,11.97
2018-02-05T10:02:27.485Z,12.53
2018-02-05T10:04:55.589Z,12.87
2018-02-05T10:07:23.683Z,11.80
2018-02-05T10:09:51.771Z,11.10
2018-02-05T10:12:19.866Z,13.53
2018-02-05T10:14:47.970Z,14.23
2018-02-05T10:17:16.056Z,12.03
2018-02-05T10:19:44.163Z,10.33
2018-02-05T10:22:12.251Z,11.37
2018-02-05T10:24:41.127Z,11.63
2018-02-05T10:27:09.210Z,9.63
2018-02-05T10:29:37.331Z,11.27
2018-02-05T10:32:05.414Z,10.00
2018-02-05T10:34:33.487Z,11.30
2018-02-05T10:37:01.586Z,9.90
2018-02-05T10:39:29.664Z,10.63
2018-02-05T10:41:57.769Z,9.90
2018-02-05T10:44:25.867Z,9.80
2018-02-05T10:46:53.964Z,13.40
2018-02-05T10:49:23.076Z,10.83
2018-02-05T10:51:51.158Z,9.87
2018-02-05T10:54:21.056Z,9.37
2018-02-05T10:56:49.170Z,8.73
2018-02-05T10:59:17.273Z,8.30
2018-02-05T11:01:45.361Z,8.10
2018-02-05T11:04:13.455Z,9.43
2018-02-05T11:06:41.527Z,8.63
2018-02-05T11:09:09.631Z,8.13
2018-02-05T11:11:37.725Z,8.10
2018-02-05T11:14:05.816Z,8.27
2018-02-05T11:16:34.891Z,9.00
2018-02-05T11:19:02.984Z,6.87
2018-02-05T11:21:31.080Z,6.90
2018-02-05T11:23:59.183Z,8.40
2018-02-05T11:26:27.264Z,7.20
2018-02-05T11:28:55.384Z,7.77
2018-02-05T11:31:23.484Z,7.27
2018-02-05T11:33:52.378Z,7.17
2018-02-05T11:36:22.504Z,6.77
2018-02-05T11:38:51.378Z,8.23
2018-02-05T11:41:19.477Z,10.07
2018-02-05T11:43:47.553Z,11.80
2018-02-05T11:46:15.658Z,7.63
2018-02-05T11:48:43.764Z,7.70
2018-02-05T11:51:11.844Z,6.70
2018-02-05T11:54:00.546Z,6.90
2018-02-05T11:56:28.612Z,6.97
2018-02-05T12:01:46.294Z,7.30
2018-02-05T12:04:14.426Z,7.20
2018-02-05T12:06:42.479Z,6.63
2018-02-05T12:09:16.290Z,7.30
2018-02-05T12:11:44.420Z,6.50
2018-02-05T12:14:12.526Z,6.37
2018-02-05T12:16:40.661Z,7.30
2018-02-05T12:19:08.777Z,6.73
2018-02-05T12:21:37.622Z,6.23
2018-02-05T12:24:05.696Z,6.33
2018-02-05T12:26:33.809Z,6.57
2018-02-05T12:29:01.910Z,9.63
2018-02-05T12:31:30.016Z,16.40
2018-02-05T12:33:58.172Z,6.70
2018-02-05T12:36:27.651Z,6.60
2018-02-05T12:39:14.025Z,7.20
2018-02-05T12:41:48.854Z,5.67
2018-02-05T12:44:19.765Z,6.63
2018-02-05T12:46:54.345Z,6.10
2018-02-05T12:49:25.352Z,6.10
2018-02-05T12:51:57.440Z,6.10
2018-02-05T12:54:29.350Z,5.60
2018-02-05T12:57:03.719Z,5.30
2018-02-05T12:59:34.639Z,5.97
2018-02-05T13:02:05.426Z,5.50
2018-02-05T13:04:39.098Z,5.70
2018-02-05T13:07:09.533Z,5.00
2018-02-05T13:09:42.573Z,5.30
2018-02-05T13:12:13.617Z,5.30
2018-02-05T13:14:44.180Z,5.63
2018-02-05T13:17:19.494Z,4.90
2018-02-05T13:19:54.385Z,5.40
2018-02-05T13:22:57.770Z,5.13
2018-02-05T13:25:33.763Z,5.77
2018-02-05T13:28:05.188Z,5.30
2018-02-05T13:30:44.776Z,5.33
2018-02-05T13:33:20.717Z,4.83
2018-02-05T13:36:00.502Z,5.00
2018-02-05T13:42:19.131Z,4.77
2018-02-05T13:54:57.329Z,4.83
2018-02-05T14:22:20.524Z,5.53
2018-02-05T14:36:26.683Z,6.00
2018-02-05T15:08:15.890Z,6.50
2018-02-05T15:10:55.669Z,7.50
2018-02-05T15:13:40.776Z,7.37
2018-02-05T15:16:13.334Z,6.77
2018-02-05T15:18:51.160Z,8.00
2018-02-05T15:21:21.826Z,9.43
2018-02-05T15:23:59.777Z,9.03
2018-02-05T15:26:44.838Z,8.63
2018-02-05T15:29:20.852Z,6.97
2018-02-05T15:35:13.834Z,7.97
2018-02-05T15:38:02.510Z,7.13
2018-02-05T15:40:49.071Z,7.47
2018-02-05T15:46:48.071Z,6.10
2018-02-05T15:52:35.219Z,6.70
2018-02-05T15:55:17.067Z,6.63
2018-02-05T16:12:19.873Z,7.07
2018-02-05T16:15:00.816Z,6.90
2018-02-05T16:17:58.947Z,7.20
2018-02-05T16:20:44.531Z,6.10
2018-02-05T16:31:03.695Z,7.43
2018-02-05T16:39:37.555Z,9.07
2018-02-05T16:48:11.881Z,9.80
2018-02-05T17:02:48.565Z,8.20
2018-02-05T17:08:20.585Z,8.90
2018-02-05T17:11:02.948Z,8.63
2018-02-05T17:13:42.551Z,8.43
2018-02-05T17:16:23.470Z,8.53
2018-02-05T17:19:08.584Z,8.20
2018-02-05T17:21:49.610Z,10.10
2018-02-05T17:24:20.240Z,9.87
2018-02-05T17:29:42.623Z,9.83
2018-02-05T17:32:18.232Z,10.07
2018-02-05T17:35:03.718Z,9.67
2018-02-05T17:37:43.903Z,9.73
2018-02-05T17:40:17.696Z,9.40
2018-02-05T17:42:54.085Z,9.47
2018-02-05T17:45:30.247Z,10.30
2018-02-05T17:51:21.862Z,9.03
2018-02-05T17:59:39.354Z,10.33
2018-02-05T18:02:19.530Z,10.80
2018-02-05T18:13:33.767Z,11.30
2018-02-05T18:16:15.143Z,10.80
2018-02-05T18:24:23.707Z,11.50
2018-02-05T18:29:45.589Z,10.97
2018-02-05T18:35:05.838Z,9.90
2018-02-05T18:43:18.099Z,14.63
2018-02-05T18:48:38.097Z,12.13
2018-02-05T18:51:12.341Z,13.47
2018-02-05T18:53:49.170Z,16.63
2018-02-05T19:02:45.168Z,14.70
2018-02-05T19:05:55.671Z,13.13
2018-02-05T19:08:31.413Z,13.20
2018-02-05T19:11:24.081Z,15.00
2018-02-05T19:14:15.184Z,14.50
2018-02-05T19:17:08.496Z,17.47
2018-02-05T19:20:07.569Z,14.10
2018-02-05T19:23:01.833Z,14.50
2018-02-05T19:49:34.667Z,12.97
2018-02-05T20:01:45.769Z,13.97
2018-02-05T20:07:45.040Z,14.37
2018-02-05T20:13:07.486Z,13.57
2018-02-05T20:15:44.394Z,15.47
2018-02-05T20:18:38.732Z,13.30
2018-02-05T20:35:38.409Z,12.63
2018-02-05T20:38:06.653Z,14.03
2018-02-05T20:40:34.913Z,13.30
2018-02-05T20:43:03.030Z,13.57
2018-02-05T20:45:33.053Z,12.77
2018-02-05T20:48:08.606Z,13.40
2018-02-05T20:50:41.575Z,12.83
2018-02-05T20:59:09.807Z,13.00
2018-02-05T21:01:44.866Z,15.47
2018-02-05T21:04:24.409Z,14.03
2018-02-05T21:10:16.615Z,30.17
2018-02-05T21:12:54.658Z,18.10
2018-02-05T21:18:23.756Z,14.97
2018-02-05T21:20:51.908Z,13.90
2018-02-05T21:23:20.012Z,15.67
2018-02-05T21:25:48.097Z,14.50
2018-02-05T21:28:16.241Z,14.87
2018-02-05T21:30:44.331Z,15.17
2018-02-05T21:33:13.195Z,16.10
2018-02-05T21:35:41.319Z,15.70
2018-02-05T21:38:09.439Z,14.57
2018-02-05T21:40:38.898Z,14.80
2018-02-05T21:43:06.992Z,15.10
2018-02-05T21:45:35.117Z,15.50
2018-02-05T21:48:03.245Z,14.10
2018-02-05T21:50:32.305Z,15.00
2018-02-05T21:53:00.457Z,14.40
2018-02-05T21:55:30.222Z,15.30
2018-02-05T21:58:07.150Z,15.33
2018-02-05T22:00:35.333Z,22.13
2018-02-05T22:03:05.153Z,15.73
2018-02-05T22:05:33.305Z,13.43
2018-02-05T22:08:02.201Z,15.20
2018-02-05T22:10:31.068Z,13.77
2018-02-05T22:12:59.246Z,14.70
2018-02-05T22:15:27.348Z,15.77
2018-02-05T22:17:55.462Z,15.27
2018-02-05T22:20:23.564Z,15.73
2018-02-05T22:22:51.669Z,15.07
2018-02-05T22:25:19.783Z,14.60
2018-02-05T22:27:47.879Z,15.07
2018-02-05T22:30:15.980Z,15.60
2018-02-05T22:32:44.836Z,14.30
2018-02-05T22:35:12.940Z,15.17
2018-02-05T22:37:41.029Z,15.97
2018-02-05T22:40:09.124Z,15.80
2018-02-05T22:42:37.243Z,13.60
2018-02-05T22:45:05.343Z,16.83
2018-02-05T22:47:34.210Z,15.17
2018-02-05T22:50:03.066Z,15.70
2018-02-05T22:52:31.180Z,15.80
2018-02-05T22:55:00.036Z,13.60
2018-02-05T22:57:28.147Z,14.60
2018-02-05T22:59:57.007Z,13.77
2018-02-05T23:02:27.788Z,14.70
2018-02-05T23:04:55.930Z,14.60
2018-02-05T23:07:24.057Z,13.60
2018-02-05T23:09:59.727Z,15.20
2018-02-05T23:12:27.860Z,14.50
2018-02-05T23:14:57.633Z,14.37
2018-02-05T23:17:25.782Z,14.77
2018-02-05T23:19:55.078Z,13.93
2018-02-05T23:22:23.184Z,13.97
2018-02-05T23:24:51.334Z,13.97
2018-02-05T23:27:19.789Z,14.10
2018-02-05T23:29:48.385Z,14.13
2018-02-05T23:32:17.274Z,13.47
2018-02-05T23:37:43.568Z,13.40
2018-02-05T23:40:11.721Z,12.77
2018-02-05T23:45:34.445Z,13.80
2018-02-05T23:48:05.457Z,13.07
2018-02-05T23:50:34.462Z,13.10
2018-02-05T23:53:06.744Z,13.10
2018-02-05T23:55:35.717Z,12.50
2018-02-05T23:58:03.882Z,12.40
